createdAt,value
2018-04-02T00:01:34.080Z,4.40
2018-04-02T00:04:02.313Z,4.50
2018-04-02T00:06:29.740Z,4.40
2018-04-02T00:08:57.190Z,4.70
2018-04-02T00:11:24.627Z,5.50
2018-04-02T00:13:52.082Z,5.30
2018-04-02T00:16:20.290Z,4.80
2018-04-02T00:18:47.743Z,4.90
2018-04-02T00:21:15.191Z,5.50
2018-04-02T00:23:42.652Z,6.00
2018-04-02T00:26:10.107Z,5.70
2018-04-02T00:28:37.547Z,5.60
2018-04-02T00:31:05.003Z,5.80
2018-04-02T00:33:32.451Z,5.80
2018-04-02T00:36:00.683Z,6.20
2018-04-02T00:38:28.124Z,6.20
2018-04-02T00:40:55.569Z,5.30
2018-04-02T00:43:23.040Z,5.00
2018-04-02T00:45:50.494Z,5.20
2018-04-02T00:48:17.940Z,5.00
2018-04-02T00:50:45.393Z,5.20
2018-04-02T00:53:12.856Z,5.10
2018-04-02T00:55:40.323Z,5.60
2018-04-02T00:58:07.759Z,5.40
2018-04-02T01:00:35.219Z,5.30
2018-04-02T01:03:02.674Z,5.30
2018-04-02T01:05:30.130Z,4.80
2018-04-02T01:07:57.571Z,4.40
2018-04-02T01:10:25.786Z,4.20
2018-04-02T01:12:53.224Z,4.10
2018-04-02T01:15:20.678Z,3.70
2018-04-02T01:17:48.116Z,3.90
2018-04-02T01:20:16.330Z,4.00
2018-04-02T01:22:43.771Z,4.00
2018-04-02T01:25:11.237Z,3.50
2018-04-02T01:27:38.676Z,3.20
2018-04-02T01:30:06.127Z,2.70
2018-04-02T01:32:34.334Z,3.10
2018-04-02T01:35:01.798Z,3.10
2018-04-02T01:37:29.248Z,4.00
2018-04-02T01:39:56.690Z,3.70
2018-04-02T01:42:24.142Z,3.50
2018-04-02T01:44:51.608Z,3.10
2018-04-02T01:47:19.058Z,2.80
2018-04-02T01:49:46.523Z,3.00
2018-04-02T01:52:13.960Z,2.80
2018-04-02T01:54:42.185Z,2.50
2018-04-02T01:57:09.619Z,2.50
2018-04-02T01:59:37.083Z,2.40
2018-04-02T02:02:04.540Z,2.40
2018-04-02T02:04:31.989Z,2.70
2018-04-02T02:06:59.469Z,3.60
2018-04-02T02:09:26.876Z,3.30
2018-04-02T02:11:54.331Z,2.80
2018-04-02T02:14:21.812Z,2.70
2018-04-02T02:16:49.258Z,2.60
2018-04-02T02:19:16.711Z,2.30
2018-04-02T02:21:44.205Z,2.40
2018-04-02T02:24:11.676Z,2.20
2018-04-02T02:26:39.092Z,2.00
2018-04-02T02:29:06.548Z,2.10
2018-04-02T02:31:34.012Z,2.30
2018-04-02T02:34:01.471Z,2.40
2018-04-02T02:36:28.936Z,2.40
2018-04-02T02:38:56.409Z,2.40
2018-04-02T02:41:23.877Z,2.40
2018-04-02T02:43:51.323Z,2.50
2018-04-02T02:46:18.794Z,3.10
2018-04-02T02:48:46.253Z,3.90
2018-04-02T02:51:13.708Z,4.50
2018-04-02T02:53:41.149Z,4.30
2018-04-02T02:56:08.608Z,4.50
2018-04-02T02:58:36.062Z,4.10
2018-04-02T03:01:03.513Z,4.30
2018-04-02T03:03:30.955Z,4.80
2018-04-02T03:05:58.437Z,4.30
2018-04-02T03:08:25.895Z,3.70
2018-04-02T03:10:53.344Z,2.90
2018-04-02T03:13:20.824Z,3.70
2018-04-02T03:15:49.047Z,2.80
2018-04-02T03:18:16.496Z,2.70
2018-04-02T03:20:44.712Z,2.80
2018-04-02T03:23:12.151Z,2.80
2018-04-02T03:25:39.628Z,2.70
2018-04-02T03:28:07.084Z,3.30
2018-04-02T03:30:34.541Z,3.90
2018-04-02T03:33:01.993Z,3.20
2018-04-02T03:35:29.451Z,2.20
2018-04-02T03:37:56.892Z,2.30
2018-04-02T03:40:24.371Z,3.10
2018-04-02T03:42:51.803Z,3.20
2018-04-02T03:45:19.263Z,3.40
2018-04-02T03:47:46.705Z,4.10
2018-04-02T03:50:14.167Z,3.30
2018-04-02T03:52:41.661Z,2.20
2018-04-02T03:55:09.119Z,1.70
2018-04-02T03:57:36.568Z,2.00
2018-04-02T04:00:04.021Z,2.50
2018-04-02T04:02:31.492Z,3.30
2018-04-02T04:04:58.951Z,3.40
2018-04-02T04:07:26.404Z,2.80
2018-04-02T04:09:53.854Z,3.50
2018-04-02T04:12:21.315Z,2.20
2018-04-02T04:14:48.775Z,2.00
2018-04-02T04:17:16.223Z,1.60
2018-04-02T04:19:43.680Z,1.10
2018-04-02T04:22:11.135Z,1.10
2018-04-02T04:24:38.604Z,1.00
2018-04-02T04:27:06.049Z,0.90
2018-04-02T04:29:33.492Z,0.70
2018-04-02T04:32:00.963Z,1.10
2018-04-02T04:34:28.415Z,1.20
2018-04-02T04:36:55.879Z,1.50
2018-04-02T04:39:23.339Z,1.70
2018-04-02T04:41:50.795Z,1.20
2018-04-02T04:44:18.244Z,0.90
2018-04-02T04:46:45.707Z,0.80
2018-04-02T04:49:13.148Z,0.70
2018-04-02T04:51:40.613Z,0.60
2018-04-02T04:54:08.115Z,0.60
2018-04-02T04:56:35.571Z,0.50
2018-04-02T04:59:03.016Z,0.40
2018-04-02T05:01:30.471Z,0.50
2018-04-02T05:03:57.911Z,0.50
2018-04-02T05:06:25.371Z,0.50
2018-04-02T05:08:52.818Z,0.50
2018-04-02T05:11:20.280Z,0.40
2018-04-02T05:13:47.731Z,0.40
2018-04-02T05:16:15.199Z,0.40
2018-04-02T05:18:42.640Z,0.40
2018-04-02T05:21:10.105Z,0.40
2018-04-02T05:23:37.539Z,0.40
2018-04-02T05:26:05.005Z,0.50
2018-04-02T05:28:32.457Z,0.60
2018-04-02T05:30:59.963Z,0.50
2018-04-02T05:33:27.355Z,0.70
2018-04-02T05:35:55.600Z,0.80
2018-04-02T05:38:23.036Z,0.80
2018-04-02T05:40:50.495Z,0.90
2018-04-02T05:43:17.943Z,1.10
2018-04-02T05:45:46.171Z,1.40
2018-04-02T05:48:14.378Z,2.00
2018-04-02T05:50:41.840Z,2.00
2018-04-02T05:53:09.292Z,1.90
2018-04-02T05:55:36.751Z,1.70
2018-04-02T05:58:04.203Z,1.40
2018-04-02T06:00:31.668Z,1.30
2018-04-02T06:02:59.123Z,1.20
2018-04-02T06:05:26.592Z,1.30
2018-04-02T06:07:54.036Z,1.60
2018-04-02T06:10:21.495Z,1.60
2018-04-02T06:12:48.941Z,1.80
2018-04-02T06:15:16.408Z,2.00
2018-04-02T06:17:43.865Z,2.10
2018-04-02T06:20:11.325Z,2.00
2018-04-02T06:22:38.784Z,1.90
2018-04-02T06:25:06.241Z,1.90
2018-04-02T06:27:33.687Z,1.90
2018-04-02T06:30:01.141Z,1.90
2018-04-02T06:32:28.592Z,2.10
2018-04-02T06:34:56.035Z,2.10
2018-04-02T06:37:23.495Z,2.10
2018-04-02T06:39:50.941Z,2.20
2018-04-02T06:42:19.161Z,2.40
2018-04-02T06:44:46.615Z,2.40
2018-04-02T06:47:14.071Z,2.60
2018-04-02T06:49:41.527Z,2.70
2018-04-02T06:52:08.985Z,2.80
2018-04-02T06:54:36.443Z,2.90
2018-04-02T06:57:03.904Z,2.90
2018-04-02T06:59:31.379Z,2.90
2018-04-02T07:01:58.838Z,3.10
2018-04-02T07:04:26.320Z,3.20
2018-04-02T07:06:54.510Z,3.30
2018-04-02T07:09:22.743Z,3.40
2018-04-02T07:11:50.204Z,3.40
2018-04-02T07:14:17.680Z,3.50
2018-04-02T07:16:45.159Z,3.50
2018-04-02T07:19:13.371Z,4.00
2018-04-02T07:21:40.828Z,4.00
2018-04-02T07:24:08.283Z,4.10
2018-04-02T07:26:35.761Z,4.30
2018-04-02T07:29:03.216Z,4.40
2018-04-02T07:31:30.676Z,4.60
2018-04-02T07:33:58.111Z,4.80
2018-04-02T07:36:25.572Z,5.00
2018-04-02T07:38:53.027Z,5.30
2018-04-02T07:41:20.501Z,5.40
2018-04-02T07:43:47.959Z,5.90
2018-04-02T07:46:15.436Z,5.90
2018-04-02T07:48:42.871Z,6.20
2018-04-02T07:51:10.348Z,6.50
2018-04-02T07:53:37.805Z,6.60
2018-04-02T07:56:05.271Z,7.00
2018-04-02T07:58:32.707Z,7.30
2018-04-02T08:01:00.163Z,7.30
2018-04-02T08:03:27.628Z,7.30
2018-04-02T08:05:55.841Z,7.40
2018-04-02T08:08:24.069Z,7.50
2018-04-02T08:10:51.524Z,7.50
2018-04-02T08:13:18.972Z,7.40
2018-04-02T08:15:46.412Z,7.70
2018-04-02T08:18:13.868Z,8.10
2018-04-02T08:20:41.300Z,9.10
2018-04-02T08:23:09.540Z,11.00
2018-04-02T08:25:37.751Z,11.70
2018-04-02T08:28:05.968Z,12.30
2018-04-02T08:30:33.417Z,12.30
2018-04-02T08:33:00.876Z,11.80
2018-04-02T08:35:28.347Z,11.50
2018-04-02T08:37:55.808Z,11.70
2018-04-02T08:40:23.247Z,11.30
2018-04-02T08:42:50.708Z,11.30
2018-04-02T08:45:18.165Z,11.00
2018-04-02T08:47:45.640Z,11.20
2018-04-02T08:50:13.092Z,11.00
2018-04-02T08:52:40.547Z,10.90
2018-04-02T08:55:07.992Z,10.80
2018-04-02T08:57:35.451Z,10.90
2018-04-02T09:00:02.904Z,11.00
2018-04-02T09:02:30.351Z,11.20
2018-04-02T09:04:57.819Z,11.80
2018-04-02T09:07:25.280Z,12.30
2018-04-02T09:09:52.737Z,12.70
2018-04-02T09:12:20.195Z,12.90
2018-04-02T09:14:47.652Z,12.90
2018-04-02T09:17:15.095Z,13.00
2018-04-02T09:19:42.539Z,12.90
2018-04-02T09:22:10.000Z,12.40
2018-04-02T09:24:37.449Z,12.60
2018-04-02T09:27:05.653Z,12.80
2018-04-02T09:29:33.112Z,12.80
2018-04-02T09:32:00.568Z,12.80
2018-04-02T09:34:28.040Z,13.20
2018-04-02T09:36:55.484Z,13.30
2018-04-02T09:39:22.931Z,13.40
2018-04-02T09:41:50.383Z,13.70
2018-04-02T09:44:17.827Z,13.60
2018-04-02T09:46:45.286Z,13.60
2018-04-02T09:49:12.737Z,13.90
2018-04-02T09:51:40.961Z,14.20
2018-04-02T09:54:08.449Z,14.20
2018-04-02T09:56:35.859Z,14.40
2018-04-02T09:59:03.316Z,14.90
2018-04-02T10:01:30.766Z,15.60
2018-04-02T10:03:58.219Z,14.80
2018-04-02T10:06:25.671Z,14.50
2018-04-02T10:08:53.109Z,15.00
2018-04-02T10:11:21.339Z,15.40
2018-04-02T10:13:48.791Z,15.40
2018-04-02T10:16:16.219Z,14.90
2018-04-02T10:18:43.669Z,14.10
2018-04-02T10:21:11.115Z,14.20
2018-04-02T10:23:39.330Z,13.30
2018-04-02T10:26:06.779Z,13.30
2018-04-02T10:28:34.252Z,13.40
2018-04-02T10:31:01.707Z,13.90
2018-04-02T10:33:29.163Z,14.40
2018-04-02T10:35:56.592Z,14.10
2018-04-02T10:38:24.047Z,14.20
2018-04-02T10:40:51.484Z,14.70
2018-04-02T10:43:19.695Z,14.40
2018-04-02T10:45:47.173Z,14.30
2018-04-02T10:48:14.582Z,13.40
2018-04-02T10:50:42.025Z,13.70
2018-04-02T10:53:10.256Z,14.20
2018-04-02T10:55:37.691Z,14.20
2018-04-02T10:58:05.148Z,14.90
2018-04-02T11:00:32.594Z,15.20
2018-04-02T11:03:00.047Z,15.50
2018-04-02T11:05:27.491Z,15.20
2018-04-02T11:07:55.719Z,16.60
2018-04-02T11:10:23.156Z,16.50
2018-04-02T11:12:50.643Z,17.10
2018-04-02T11:15:18.098Z,17.40
2018-04-02T11:17:45.543Z,18.10
2018-04-02T11:20:13.011Z,17.80
2018-04-02T11:22:40.447Z,18.50
2018-04-02T11:25:07.904Z,19.00
2018-04-02T11:27:35.365Z,19.70
2018-04-02T11:30:02.844Z,20.10
2018-04-02T11:32:30.291Z,17.30
2018-04-02T11:34:57.740Z,16.60
2018-04-02T11:37:25.212Z,18.00
2018-04-02T11:39:52.652Z,19.00
2018-04-02T11:42:20.091Z,19.60
2018-04-02T11:44:47.540Z,20.10
2018-04-02T11:47:15.009Z,20.20
2018-04-02T11:49:42.451Z,20.70
2018-04-02T11:52:09.956Z,20.70
2018-04-02T11:54:37.388Z,21.40
2018-04-02T11:57:04.847Z,21.10
2018-04-02T11:59:32.291Z,21.30
2018-04-02T12:01:59.751Z,21.60
2018-04-02T12:04:27.204Z,21.90
2018-04-02T12:06:54.665Z,21.70
2018-04-02T12:09:22.119Z,21.60
2018-04-02T12:11:49.577Z,21.60
2018-04-02T12:14:17.035Z,21.30
2018-04-02T12:16:44.483Z,20.50
2018-04-02T12:19:11.948Z,20.30
2018-04-02T12:21:39.395Z,20.90
2018-04-02T12:24:06.863Z,21.30
2018-04-02T12:26:34.307Z,20.90
2018-04-02T12:29:01.776Z,21.00
2018-04-02T12:31:29.232Z,21.50
2018-04-02T12:33:56.691Z,20.60
2018-04-02T12:36:24.138Z,21.10
2018-04-02T12:38:51.606Z,19.80
2018-04-02T12:41:19.055Z,18.50
2018-04-02T12:43:46.523Z,17.90
2018-04-02T12:46:13.974Z,16.90
2018-04-02T12:48:41.429Z,16.70
2018-04-02T12:51:08.891Z,15.60
2018-04-02T12:53:36.360Z,15.60
2018-04-02T12:56:03.805Z,16.10
2018-04-02T12:58:31.271Z,16.30
2018-04-02T13:00:58.723Z,16.20
2018-04-02T13:03:26.176Z,16.30
2018-04-02T13:05:53.639Z,16.60
2018-04-02T13:08:21.099Z,16.80
2018-04-02T13:10:48.582Z,16.70
2018-04-02T13:13:16.035Z,16.80
2018-04-02T13:15:43.471Z,16.70
2018-04-02T13:18:10.925Z,16.70
2018-04-02T13:20:38.370Z,16.90
2018-04-02T13:23:05.820Z,16.90
2018-04-02T13:25:33.267Z,16.70
2018-04-02T13:28:01.484Z,16.40
2018-04-02T13:30:28.942Z,16.40
2018-04-02T13:32:56.399Z,16.40
2018-04-02T13:35:23.872Z,16.30
2018-04-02T13:37:51.357Z,16.30
2018-04-02T13:40:18.776Z,16.50
2018-04-02T13:42:46.247Z,16.40
2018-04-02T13:45:13.668Z,16.10
2018-04-02T13:47:41.122Z,16.10
2018-04-02T13:50:08.599Z,16.10
2018-04-02T13:52:36.052Z,15.70
2018-04-02T13:55:03.487Z,15.30
2018-04-02T13:57:30.967Z,15.60
2018-04-02T13:59:58.399Z,15.60
2018-04-02T14:02:25.872Z,15.50
2018-04-02T14:04:53.306Z,15.60
2018-04-02T14:07:20.776Z,15.60
2018-04-02T14:09:48.231Z,15.50
2018-04-02T14:12:15.703Z,15.30
2018-04-02T14:14:43.149Z,15.30
2018-04-02T14:17:10.621Z,15.40
2018-04-02T14:19:38.068Z,15.30
2018-04-02T14:22:05.505Z,15.20
2018-04-02T14:24:32.961Z,15.00
2018-04-02T14:27:00.392Z,15.00
2018-04-02T14:29:27.844Z,15.10
2018-04-02T14:31:55.283Z,15.20
2018-04-02T14:34:22.727Z,15.10
2018-04-02T14:36:50.168Z,15.20
2018-04-02T14:39:17.619Z,15.30
2018-04-02T14:41:45.059Z,15.40
2018-04-02T14:44:12.522Z,15.40
2018-04-02T14:46:39.947Z,15.40
2018-04-02T14:49:07.399Z,15.20
2018-04-02T14:51:34.843Z,15.20
2018-04-02T14:54:02.294Z,15.30
2018-04-02T14:56:29.735Z,15.40
2018-04-02T14:58:57.218Z,15.20
2018-04-02T15:01:24.639Z,15.20
2018-04-02T15:03:52.083Z,15.00
2018-04-02T15:06:19.531Z,15.00
2018-04-02T15:08:47.001Z,15.20
2018-04-02T15:11:14.444Z,15.20
2018-04-02T15:13:41.903Z,15.00
2018-04-02T15:16:09.359Z,14.70
2018-04-02T15:18:36.827Z,14.60
2018-04-02T15:21:04.273Z,14.40
2018-04-02T15:23:31.746Z,14.50
2018-04-02T15:25:59.188Z,14.50
2018-04-02T15:28:26.659Z,14.40
2018-04-02T15:30:54.102Z,14.20
2018-04-02T15:33:21.571Z,14.20
2018-04-02T15:35:49.022Z,14.30
2018-04-02T15:38:16.494Z,14.20
2018-04-02T15:40:43.928Z,14.20
2018-04-02T15:43:12.163Z,14.10
2018-04-02T15:45:39.599Z,14.10
2018-04-02T15:48:07.044Z,13.90
2018-04-02T15:50:35.312Z,14.00
2018-04-02T15:53:02.775Z,13.90
2018-04-02T15:55:30.224Z,13.90
2018-04-02T15:57:57.674Z,14.00
2018-04-02T16:00:25.135Z,14.00
2018-04-02T16:02:52.566Z,13.90
2018-04-02T16:05:20.780Z,13.90
2018-04-02T16:07:48.223Z,14.00
2018-04-02T16:10:15.684Z,13.90
2018-04-02T16:12:43.131Z,13.90
2018-04-02T16:15:10.587Z,13.90
2018-04-02T16:17:38.029Z,13.90
2018-04-02T16:20:06.239Z,13.80
2018-04-02T16:22:33.691Z,13.80
2018-04-02T16:25:01.148Z,13.90
2018-04-02T16:27:28.588Z,14.00
2018-04-02T16:29:56.047Z,14.00
2018-04-02T16:32:23.477Z,14.10
2018-04-02T16:34:51.700Z,14.00
2018-04-02T16:37:19.139Z,14.00
2018-04-02T16:39:46.592Z,14.10
2018-04-02T16:42:14.046Z,14.00
2018-04-02T16:44:42.247Z,14.00
2018-04-02T16:47:09.692Z,13.90
2018-04-02T16:49:37.138Z,13.90
2018-04-02T16:52:04.594Z,13.80
2018-04-02T16:54:32.036Z,13.90
2018-04-02T16:57:00.258Z,13.70
2018-04-02T16:59:27.696Z,13.60
2018-04-02T17:01:55.155Z,13.60
2018-04-02T17:04:22.600Z,13.50
2018-04-02T17:06:50.055Z,13.50
2018-04-02T17:09:17.512Z,13.60
2018-04-02T17:11:45.743Z,13.30
2018-04-02T17:14:13.198Z,13.30
2018-04-02T17:16:40.660Z,13.10
2018-04-02T17:19:08.091Z,13.10
2018-04-02T17:21:35.558Z,13.00
2018-04-02T17:24:03.029Z,13.00
2018-04-02T17:26:30.447Z,13.20
2018-04-02T17:28:57.933Z,13.10
2018-04-02T17:31:26.128Z,13.10
2018-04-02T17:33:53.575Z,13.10
2018-04-02T17:36:21.039Z,13.10
2018-04-02T17:38:48.492Z,13.10
2018-04-02T17:41:15.932Z,13.10
2018-04-02T17:43:43.388Z,13.00
2018-04-02T17:46:10.864Z,12.90
2018-04-02T17:48:38.341Z,12.90
2018-04-02T17:51:05.759Z,12.80
2018-04-02T17:53:33.215Z,12.90
2018-04-02T17:56:00.710Z,12.80
2018-04-02T17:58:28.131Z,12.80
2018-04-02T18:00:55.565Z,12.70
2018-04-02T18:03:23.021Z,12.70
2018-04-02T18:05:50.468Z,12.50
2018-04-02T18:08:17.920Z,12.50
2018-04-02T18:10:45.376Z,12.40
2018-04-02T18:13:13.593Z,12.40
2018-04-02T18:15:41.048Z,12.40
2018-04-02T18:18:08.500Z,12.30
2018-04-02T18:20:35.957Z,12.40
2018-04-02T18:23:03.400Z,12.30
2018-04-02T18:25:30.837Z,12.50
2018-04-02T18:27:59.055Z,12.50
2018-04-02T18:30:26.487Z,12.50
2018-04-02T18:32:53.927Z,12.80
2018-04-02T18:35:21.395Z,13.00
2018-04-02T18:37:48.836Z,12.90
2018-04-02T18:40:17.070Z,13.10
2018-04-02T18:42:44.508Z,13.10
2018-04-02T18:45:11.954Z,13.10
2018-04-02T18:47:39.452Z,13.00
2018-04-02T18:50:06.860Z,12.30
2018-04-02T18:52:34.300Z,12.40
2018-04-02T18:55:01.763Z,12.50
2018-04-02T18:57:29.214Z,12.30
2018-04-02T18:59:56.671Z,12.50
2018-04-02T19:02:24.112Z,12.80
2018-04-02T19:04:52.348Z,13.00
2018-04-02T19:07:19.796Z,13.00
2018-04-02T19:09:47.255Z,12.60
2018-04-02T19:12:14.691Z,12.30
2018-04-02T19:14:42.163Z,12.60
2018-04-02T19:17:09.619Z,12.70
2018-04-02T19:19:37.079Z,12.40
2018-04-02T19:22:04.516Z,12.10
2018-04-02T19:24:31.992Z,12.10
2018-04-02T19:26:59.467Z,12.10
2018-04-02T19:29:26.926Z,11.90
2018-04-02T19:31:54.373Z,11.80
2018-04-02T19:34:21.852Z,12.10
2018-04-02T19:36:49.331Z,12.00
2018-04-02T19:39:16.746Z,12.00
2018-04-02T19:41:44.200Z,12.10
2018-04-02T19:44:11.657Z,12.10
2018-04-02T19:46:39.103Z,12.30
2018-04-02T19:49:06.563Z,12.40
2018-04-02T19:51:34.007Z,12.50
2018-04-02T19:54:01.476Z,12.60
2018-04-02T19:56:28.914Z,12.60
2018-04-02T19:58:56.363Z,12.70
2018-04-02T20:01:23.795Z,12.70
2018-04-02T20:03:52.016Z,12.50
2018-04-02T20:06:19.453Z,12.50
2018-04-02T20:08:46.907Z,12.50
2018-04-02T20:11:14.347Z,12.20
2018-04-02T20:13:42.576Z,12.40
2018-04-02T20:16:10.032Z,12.40
2018-04-02T20:18:37.507Z,12.60
2018-04-02T20:21:04.955Z,12.50
2018-04-02T20:23:32.408Z,12.60
2018-04-02T20:25:59.863Z,12.80
2018-04-02T20:28:27.310Z,12.70
2018-04-02T20:30:54.763Z,12.60
2018-04-02T20:33:22.217Z,12.80
2018-04-02T20:35:49.675Z,12.80
2018-04-02T20:38:17.116Z,12.60
2018-04-02T20:40:44.573Z,12.60
2018-04-02T20:43:12.015Z,12.40
2018-04-02T20:45:40.238Z,12.40
2018-04-02T20:48:07.697Z,12.40
2018-04-02T20:50:35.153Z,12.30
2018-04-02T20:53:02.590Z,12.20
2018-04-02T20:55:30.044Z,12.20
2018-04-02T20:57:57.491Z,12.40
2018-04-02T21:00:24.932Z,12.50
2018-04-02T21:02:52.384Z,12.60
2018-04-02T21:05:20.592Z,12.90
2018-04-02T21:07:48.048Z,12.80
2018-04-02T21:10:15.505Z,12.90
2018-04-02T21:12:42.964Z,13.00
2018-04-02T21:15:10.414Z,13.10
2018-04-02T21:17:37.882Z,13.10
2018-04-02T21:20:05.343Z,13.10
2018-04-02T21:22:32.794Z,13.10
2018-04-02T21:25:00.246Z,13.00
2018-04-02T21:27:27.703Z,13.10
2018-04-02T21:29:55.138Z,13.10
2018-04-02T21:32:23.355Z,13.10
2018-04-02T21:34:50.812Z,13.10
2018-04-02T21:37:18.268Z,13.10
2018-04-02T21:39:45.736Z,13.20
2018-04-02T21:42:13.184Z,13.20
2018-04-02T21:44:40.677Z,13.20
2018-04-02T21:47:09.543Z,13.30
2018-04-02T21:49:37.004Z,13.30
2018-04-02T21:52:04.480Z,13.30
2018-04-02T21:54:31.911Z,13.30
2018-04-02T21:56:59.361Z,13.40
2018-04-02T21:59:26.819Z,13.30
2018-04-02T22:01:54.268Z,13.40
2018-04-02T22:04:21.728Z,13.40
2018-04-02T22:07:00.987Z,13.40
2018-04-02T22:09:28.432Z,13.40
2018-04-02T22:11:55.891Z,13.30
2018-04-02T22:14:23.347Z,13.30
2018-04-02T22:16:50.776Z,13.30
2018-04-02T22:19:18.242Z,13.20
2018-04-02T22:21:45.692Z,13.20
2018-04-02T22:24:13.143Z,13.10
2018-04-02T22:26:40.579Z,13.20
2018-04-02T22:29:08.786Z,13.30
2018-04-02T22:31:36.244Z,13.30
2018-04-02T22:34:03.687Z,13.30
2018-04-02T22:36:31.185Z,13.30
2018-04-02T22:38:58.600Z,13.20
2018-04-02T22:41:26.058Z,13.20
2018-04-02T22:43:53.519Z,13.30
2018-04-02T22:46:20.973Z,13.20
2018-04-02T22:48:48.410Z,13.10
2018-04-02T22:51:15.887Z,13.10
2018-04-02T22:53:43.308Z,13.10
2018-04-02T22:56:11.536Z,13.00
2018-04-02T22:58:38.996Z,13.00
2018-04-02T23:01:06.447Z,13.10
2018-04-02T23:03:33.915Z,13.10
2018-04-02T23:06:01.363Z,13.10
2018-04-02T23:08:28.812Z,13.10
2018-04-02T23:10:56.281Z,13.10
2018-04-02T23:13:23.731Z,13.10
2018-04-02T23:15:51.186Z,13.00
2018-04-02T23:18:18.629Z,13.00
2018-04-02T23:20:46.088Z,13.00
2018-04-02T23:23:13.544Z,13.10
2018-04-02T23:25:41.002Z,13.00
2018-04-02T23:28:08.459Z,13.00
2018-04-02T23:30:35.922Z,12.90
2018-04-02T23:33:03.373Z,13.00
2018-04-02T23:35:30.832Z,13.00
2018-04-02T23:37:58.289Z,12.90
2018-04-02T23:40:25.724Z,12.90
2018-04-02T23:42:53.931Z,12.90
2018-04-02T23:45:21.391Z,12.90
2018-04-02T23:47:48.835Z,12.90
2018-04-02T23:50:16.294Z,12.90
2018-04-02T23:52:43.748Z,12.90
2018-04-02T23:55:11.211Z,12.80
2018-04-02T23:57:38.667Z,12.80
